sensor_id;sensor_type;location;lat;lon;timestamp;P1;durP1;ratioP1;P2;durP2;ratioP2
12110;SDS011;6119;52.372;8.990;2024-01-06T00:02:25;7.10;;;3.07;;
12110;SDS011;6119;52.372;8.990;2024-01-06T00:05:12;5.70;;;3.53;;
12110;SDS011;6119;52.372;8.990;2024-01-06T00:07:59;6.07;;;3.40;;
12110;SDS011;6119;52.372;8.990;2024-01-06T00:10:47;4.13;;;3.37;;
12110;SDS011;6119;52.372;8.990;2024-01-06T00:13:33;4.90;;;4.00;;
12110;SDS011;6119;52.372;8.990;2024-01-06T00:16:21;6.23;;;4.20;;
12110;SDS011;6119;52.372;8.990;2024-01-06T00:19:11;7.13;;;4.00;;
12110;SDS011;6119;52.372;8.990;2024-01-06T00:21:58;6.30;;;4.33;;
12110;SDS011;6119;52.372;8.990;2024-01-06T00:24:45;4.90;;;4.23;;
12110;SDS011;6119;52.372;8.990;2024-01-06T00:27:35;5.70;;;4.47;;
12110;SDS011;6119;52.372;8.990;2024-01-06T00:30:21;5.07;;;4.20;;
12110;SDS011;6119;52.372;8.990;2024-01-06T00:33:08;5.40;;;4.43;;
12110;SDS011;6119;52.372;8.990;2024-01-06T00:35:55;5.43;;;4.90;;
12110;SDS011;6119;52.372;8.990;2024-01-06T00:38:42;7.03;;;4.97;;
12110;SDS011;6119;52.372;8.990;2024-01-06T00:41:28;5.57;;;4.80;;
12110;SDS011;6119;52.372;8.990;2024-01-06T00:44:16;5.70;;;4.30;;
12110;SDS011;6119;52.372;8.990;2024-01-06T00:47:03;5.00;;;4.50;;
12110;SDS011;6119;52.372;8.990;2024-01-06T00:49:49;9.67;;;4.77;;
12110;SDS011;6119;52.372;8.990;2024-01-06T00:52:36;6.23;;;5.00;;
12110;SDS011;6119;52.372;8.990;2024-01-06T00:55:23;5.37;;;4.37;;
12110;SDS011;6119;52.372;8.990;2024-01-06T00:58:09;6.50;;;4.73;;
12110;SDS011;6119;52.372;8.990;2024-01-06T01:00:57;5.93;;;4.57;;
12110;SDS011;6119;52.372;8.990;2024-01-06T01:03:44;6.23;;;5.10;;
12110;SDS011;6119;52.372;8.990;2024-01-06T01:06:30;8.07;;;4.97;;
12110;SDS011;6119;52.372;8.990;2024-01-06T01:09:17;7.67;;;5.07;;
12110;SDS011;6119;52.372;8.990;2024-01-06T01:12:04;6.20;;;5.20;;
12110;SDS011;6119;52.372;8.990;2024-01-06T01:14:51;5.17;;;4.60;;
12110;SDS011;6119;52.372;8.990;2024-01-06T01:17:39;9.37;;;5.27;;
12110;SDS011;6119;52.372;8.990;2024-01-06T01:20:26;6.83;;;5.20;;
12110;SDS011;6119;52.372;8.990;2024-01-06T01:23:13;5.87;;;5.13;;
12110;SDS011;6119;52.372;8.990;2024-01-06T01:25:59;6.67;;;5.77;;
12110;SDS011;6119;52.372;8.990;2024-01-06T01:28:46;7.63;;;5.87;;
12110;SDS011;6119;52.372;8.990;2024-01-06T01:31:32;7.70;;;6.13;;
12110;SDS011;6119;52.372;8.990;2024-01-06T01:34:21;7.17;;;6.33;;
12110;SDS011;6119;52.372;8.990;2024-01-06T01:37:08;11.23;;;6.63;;
12110;SDS011;6119;52.372;8.990;2024-01-06T01:39:54;9.03;;;6.90;;
12110;SDS011;6119;52.372;8.990;2024-01-06T01:42:41;7.57;;;6.43;;
12110;SDS011;6119;52.372;8.990;2024-01-06T01:45:28;7.50;;;6.70;;
12110;SDS011;6119;52.372;8.990;2024-01-06T01:48:15;8.40;;;7.10;;
12110;SDS011;6119;52.372;8.990;2024-01-06T01:51:03;8.53;;;6.73;;
12110;SDS011;6119;52.372;8.990;2024-01-06T01:53:51;10.10;;;6.70;;
12110;SDS011;6119;52.372;8.990;2024-01-06T01:56:38;8.10;;;6.40;;
12110;SDS011;6119;52.372;8.990;2024-01-06T01:59:26;11.20;;;7.17;;
12110;SDS011;6119;52.372;8.990;2024-01-06T02:02:12;8.87;;;7.03;;
12110;SDS011;6119;52.372;8.990;2024-01-06T02:05:00;9.83;;;7.47;;
12110;SDS011;6119;52.372;8.990;2024-01-06T02:07:47;9.27;;;7.20;;
12110;SDS011;6119;52.372;8.990;2024-01-06T02:10:36;8.70;;;6.20;;
12110;SDS011;6119;52.372;8.990;2024-01-06T02:13:22;8.27;;;6.40;;
12110;SDS011;6119;52.372;8.990;2024-01-06T02:16:09;8.43;;;6.20;;
12110;SDS011;6119;52.372;8.990;2024-01-06T02:18:56;8.13;;;5.63;;
12110;SDS011;6119;52.372;8.990;2024-01-06T02:21:43;8.43;;;6.13;;
12110;SDS011;6119;52.372;8.990;2024-01-06T02:24:32;7.57;;;5.70;;
12110;SDS011;6119;52.372;8.990;2024-01-06T02:27:19;8.87;;;5.97;;
12110;SDS011;6119;52.372;8.990;2024-01-06T02:30:06;6.53;;;5.03;;
12110;SDS011;6119;52.372;8.990;2024-01-06T02:32:53;7.53;;;5.67;;
12110;SDS011;6119;52.372;8.990;2024-01-06T02:35:41;7.30;;;5.50;;
12110;SDS011;6119;52.372;8.990;2024-01-06T02:38:27;7.37;;;5.63;;
12110;SDS011;6119;52.372;8.990;2024-01-06T02:41:15;6.90;;;5.43;;
12110;SDS011;6119;52.372;8.990;2024-01-06T02:44:02;7.43;;;5.63;;
12110;SDS011;6119;52.372;8.990;2024-01-06T02:46:49;6.60;;;5.30;;
12110;SDS011;6119;52.372;8.990;2024-01-06T02:49:35;7.57;;;5.17;;
12110;SDS011;6119;52.372;8.990;2024-01-06T02:52:22;7.10;;;5.40;;
12110;SDS011;6119;52.372;8.990;2024-01-06T02:55:09;7.47;;;5.50;;
12110;SDS011;6119;52.372;8.990;2024-01-06T02:57:57;8.07;;;5.80;;
12110;SDS011;6119;52.372;8.990;2024-01-06T03:00:43;8.40;;;5.50;;
12110;SDS011;6119;52.372;8.990;2024-01-06T03:03:30;8.17;;;5.80;;
12110;SDS011;6119;52.372;8.990;2024-01-06T03:06:17;8.20;;;5.80;;
12110;SDS011;6119;52.372;8.990;2024-01-06T03:09:04;7.33;;;5.33;;
12110;SDS011;6119;52.372;8.990;2024-01-06T03:11:50;8.50;;;5.93;;
12110;SDS011;6119;52.372;8.990;2024-01-06T03:14:38;8.73;;;6.27;;
12110;SDS011;6119;52.372;8.990;2024-01-06T03:17:25;8.10;;;6.10;;
12110;SDS011;6119;52.372;8.990;2024-01-06T03:20:14;8.13;;;6.03;;
12110;SDS011;6119;52.372;8.990;2024-01-06T03:23:00;9.97;;;6.33;;
12110;SDS011;6119;52.372;8.990;2024-01-06T03:25:47;10.37;;;6.30;;
12110;SDS011;6119;52.372;8.990;2024-01-06T03:28:33;8.50;;;6.50;;
12110;SDS011;6119;52.372;8.990;2024-01-06T03:31:21;8.63;;;6.10;;
12110;SDS011;6119;52.372;8.990;2024-01-06T03:34:08;9.70;;;6.80;;
12110;SDS011;6119;52.372;8.990;2024-01-06T03:36:56;9.80;;;7.30;;
12110;SDS011;6119;52.372;8.990;2024-01-06T03:39:42;9.80;;;6.83;;
12110;SDS011;6119;52.372;8.990;2024-01-06T03:42:29;8.43;;;6.73;;
12110;SDS011;6119;52.372;8.990;2024-01-06T03:45:15;8.30;;;5.93;;
12110;SDS011;6119;52.372;8.990;2024-01-06T03:48:04;8.37;;;6.47;;
12110;SDS011;6119;52.372;8.990;2024-01-06T03:50:51;7.60;;;6.03;;
12110;SDS011;6119;52.372;8.990;2024-01-06T03:53:38;7.93;;;6.03;;
12110;SDS011;6119;52.372;8.990;2024-01-06T03:56:25;8.10;;;5.83;;
12110;SDS011;6119;52.372;8.990;2024-01-06T03:59:11;8.90;;;6.40;;
12110;SDS011;6119;52.372;8.990;2024-01-06T04:01:58;8.67;;;6.57;;
12110;SDS011;6119;52.372;8.990;2024-01-06T04:04:45;8.57;;;6.47;;
12110;SDS011;6119;52.372;8.990;2024-01-06T04:07:32;9.23;;;7.17;;
12110;SDS011;6119;52.372;8.990;2024-01-06T04:10:18;9.03;;;6.80;;
12110;SDS011;6119;52.372;8.990;2024-01-06T04:13:05;10.80;;;7.93;;
12110;SDS011;6119;52.372;8.990;2024-01-06T04:15:52;9.27;;;6.57;;
12110;SDS011;6119;52.372;8.990;2024-01-06T04:18:38;9.53;;;7.00;;
12110;SDS011;6119;52.372;8.990;2024-01-06T04:21:26;9.83;;;7.03;;
12110;SDS011;6119;52.372;8.990;2024-01-06T04:24:13;10.33;;;7.63;;
12110;SDS011;6119;52.372;8.990;2024-01-06T04:27:00;9.70;;;7.50;;
12110;SDS011;6119;52.372;8.990;2024-01-06T04:29:46;10.07;;;7.63;;
12110;SDS011;6119;52.372;8.990;2024-01-06T04:32:33;10.90;;;8.00;;
12110;SDS011;6119;52.372;8.990;2024-01-06T04:35:20;11.20;;;8.33;;
12110;SDS011;6119;52.372;8.990;2024-01-06T04:38:08;13.10;;;8.17;;
12110;SDS011;6119;52.372;8.990;2024-01-06T04:40:55;11.77;;;7.93;;
12110;SDS011;6119;52.372;8.990;2024-01-06T04:43:42;9.80;;;7.57;;
12110;SDS011;6119;52.372;8.990;2024-01-06T04:46:28;12.47;;;7.87;;
12110;SDS011;6119;52.372;8.990;2024-01-06T04:49:16;11.60;;;7.50;;
12110;SDS011;6119;52.372;8.990;2024-01-06T04:52:02;10.50;;;7.43;;
12110;SDS011;6119;52.372;8.990;2024-01-06T04:54:51;13.97;;;8.20;;
12110;SDS011;6119;52.372;8.990;2024-01-06T04:57:37;11.90;;;8.00;;
12110;SDS011;6119;52.372;8.990;2024-01-06T05:00:24;13.00;;;8.30;;
12110;SDS011;6119;52.372;8.990;2024-01-06T05:03:11;13.13;;;8.50;;
12110;SDS011;6119;52.372;8.990;2024-01-06T05:05:58;12.17;;;8.33;;
12110;SDS011;6119;52.372;8.990;2024-01-06T05:08:44;12.00;;;7.97;;
12110;SDS011;6119;52.372;8.990;2024-01-06T05:11:32;12.60;;;8.20;;
12110;SDS011;6119;52.372;8.990;2024-01-06T05:14:20;13.07;;;8.27;;
12110;SDS011;6119;52.372;8.990;2024-01-06T05:17:07;14.47;;;9.07;;
12110;SDS011;6119;52.372;8.990;2024-01-06T05:19:54;12.33;;;8.17;;
12110;SDS011;6119;52.372;8.990;2024-01-06T05:22:41;14.97;;;8.80;;
12110;SDS011;6119;52.372;8.990;2024-01-06T05:25:28;13.37;;;8.57;;
12110;SDS011;6119;52.372;8.990;2024-01-06T05:28:17;15.57;;;8.47;;
12110;SDS011;6119;52.372;8.990;2024-01-06T05:31:03;12.13;;;8.57;;
12110;SDS011;6119;52.372;8.990;2024-01-06T05:33:50;17.10;;;9.37;;
12110;SDS011;6119;52.372;8.990;2024-01-06T05:36:37;13.57;;;8.40;;
12110;SDS011;6119;52.372;8.990;2024-01-06T05:39:23;15.60;;;8.93;;
12110;SDS011;6119;52.372;8.990;2024-01-06T05:42:10;14.37;;;8.63;;
12110;SDS011;6119;52.372;8.990;2024-01-06T05:44:58;14.47;;;9.53;;
12110;SDS011;6119;52.372;8.990;2024-01-06T05:47:45;15.03;;;8.70;;
12110;SDS011;6119;52.372;8.990;2024-01-06T05:50:32;12.40;;;8.47;;
12110;SDS011;6119;52.372;8.990;2024-01-06T05:53:18;14.33;;;9.40;;
12110;SDS011;6119;52.372;8.990;2024-01-06T05:56:05;15.07;;;9.10;;
12110;SDS011;6119;52.372;8.990;2024-01-06T05:58:55;14.23;;;8.80;;
12110;SDS011;6119;52.372;8.990;2024-01-06T06:01:43;12.83;;;8.50;;
12110;SDS011;6119;52.372;8.990;2024-01-06T06:04:30;14.73;;;9.27;;
12110;SDS011;6119;52.372;8.990;2024-01-06T06:07:16;14.33;;;8.77;;
12110;SDS011;6119;52.372;8.990;2024-01-06T06:10:03;14.47;;;8.83;;
12110;SDS011;6119;52.372;8.990;2024-01-06T06:12:51;15.90;;;9.13;;
12110;SDS011;6119;52.372;8.990;2024-01-06T06:15:38;14.37;;;8.70;;
12110;SDS011;6119;52.372;8.990;2024-01-06T06:18:26;12.60;;;8.50;;
12110;SDS011;6119;52.372;8.990;2024-01-06T06:21:13;13.30;;;9.17;;
12110;SDS011;6119;52.372;8.990;2024-01-06T06:23:59;13.70;;;8.80;;
12110;SDS011;6119;52.372;8.990;2024-01-06T06:26:46;14.97;;;8.57;;
12110;SDS011;6119;52.372;8.990;2024-01-06T06:29:32;16.10;;;9.37;;
12110;SDS011;6119;52.372;8.990;2024-01-06T06:32:19;12.70;;;8.10;;
12110;SDS011;6119;52.372;8.990;2024-01-06T06:35:07;13.23;;;8.37;;
12110;SDS011;6119;52.372;8.990;2024-01-06T06:37:54;13.20;;;8.37;;
12110;SDS011;6119;52.372;8.990;2024-01-06T06:40:41;13.20;;;8.37;;
12110;SDS011;6119;52.372;8.990;2024-01-06T06:43:27;13.23;;;8.13;;
12110;SDS011;6119;52.372;8.990;2024-01-06T06:46:14;12.77;;;8.67;;
12110;SDS011;6119;52.372;8.990;2024-01-06T06:49:00;14.23;;;8.40;;
12110;SDS011;6119;52.372;8.990;2024-01-06T06:51:49;12.77;;;9.03;;
12110;SDS011;6119;52.372;8.990;2024-01-06T06:54:35;13.33;;;8.57;;
12110;SDS011;6119;52.372;8.990;2024-01-06T06:57:22;12.67;;;8.40;;
12110;SDS011;6119;52.372;8.990;2024-01-06T07:00:09;13.23;;;9.03;;
12110;SDS011;6119;52.372;8.990;2024-01-06T07:02:56;14.30;;;8.63;;
12110;SDS011;6119;52.372;8.990;2024-01-06T07:05:43;14.80;;;9.30;;
12110;SDS011;6119;52.372;8.990;2024-01-06T07:08:32;14.97;;;8.70;;
12110;SDS011;6119;52.372;8.990;2024-01-06T07:11:19;11.50;;;7.37;;
12110;SDS011;6119;52.372;8.990;2024-01-06T07:14:05;9.90;;;6.30;;
12110;SDS011;6119;52.372;8.990;2024-01-06T07:16:52;7.30;;;5.17;;
12110;SDS011;6119;52.372;8.990;2024-01-06T07:19:38;9.57;;;4.93;;
12110;SDS011;6119;52.372;8.990;2024-01-06T07:22:24;6.37;;;4.53;;
12110;SDS011;6119;52.372;8.990;2024-01-06T07:25:12;6.83;;;4.80;;
12110;SDS011;6119;52.372;8.990;2024-01-06T07:27:59;6.63;;;4.67;;
12110;SDS011;6119;52.372;8.990;2024-01-06T07:30:45;7.37;;;5.20;;
12110;SDS011;6119;52.372;8.990;2024-01-06T07:33:32;7.60;;;4.87;;
12110;SDS011;6119;52.372;8.990;2024-01-06T07:36:19;6.93;;;4.57;;
12110;SDS011;6119;52.372;8.990;2024-01-06T07:39:06;7.67;;;4.60;;
12110;SDS011;6119;52.372;8.990;2024-01-06T07:41:55;7.43;;;4.13;;
12110;SDS011;6119;52.372;8.990;2024-01-06T07:44:42;7.13;;;4.33;;
12110;SDS011;6119;52.372;8.990;2024-01-06T07:47:29;7.67;;;4.80;;
12110;SDS011;6119;52.372;8.990;2024-01-06T07:50:16;7.63;;;5.07;;
12110;SDS011;6119;52.372;8.990;2024-01-06T07:53:03;7.30;;;5.07;;
12110;SDS011;6119;52.372;8.990;2024-01-06T07:55:50;8.47;;;5.00;;
12110;SDS011;6119;52.372;8.990;2024-01-06T07:58:38;5.27;;;4.10;;
12110;SDS011;6119;52.372;8.990;2024-01-06T08:01:24;6.97;;;4.73;;
12110;SDS011;6119;52.372;8.990;2024-01-06T08:04:12;10.03;;;5.30;;
12110;SDS011;6119;52.372;8.990;2024-01-06T08:06:59;8.10;;;4.83;;
12110;SDS011;6119;52.372;8.990;2024-01-06T08:09:45;10.20;;;5.13;;
12110;SDS011;6119;52.372;8.990;2024-01-06T08:12:32;8.47;;;5.07;;
12110;SDS011;6119;52.372;8.990;2024-01-06T08:15:21;8.33;;;4.90;;
12110;SDS011;6119;52.372;8.990;2024-01-06T08:18:07;7.70;;;5.13;;
12110;SDS011;6119;52.372;8.990;2024-01-06T08:20:54;7.67;;;5.40;;
12110;SDS011;6119;52.372;8.990;2024-01-06T08:23:41;6.47;;;4.80;;
12110;SDS011;6119;52.372;8.990;2024-01-06T08:26:27;7.43;;;5.00;;
12110;SDS011;6119;52.372;8.990;2024-01-06T08:29:14;8.63;;;4.93;;
12110;SDS011;6119;52.372;8.990;2024-01-06T08:32:02;8.00;;;4.97;;
12110;SDS011;6119;52.372;8.990;2024-01-06T08:34:50;7.10;;;4.97;;
12110;SDS011;6119;52.372;8.990;2024-01-06T08:37:37;7.20;;;4.67;;
12110;SDS011;6119;52.372;8.990;2024-01-06T08:40:23;6.53;;;5.00;;
12110;SDS011;6119;52.372;8.990;2024-01-06T08:43:10;7.57;;;4.77;;
12110;SDS011;6119;52.372;8.990;2024-01-06T08:45:56;7.00;;;5.00;;
12110;SDS011;6119;52.372;8.990;2024-01-06T08:48:44;8.37;;;5.90;;
12110;SDS011;6119;52.372;8.990;2024-01-06T08:51:30;8.43;;;6.93;;
12110;SDS011;6119;52.372;8.990;2024-01-06T08:54:17;10.47;;;5.43;;
12110;SDS011;6119;52.372;8.990;2024-01-06T08:57:03;8.23;;;5.93;;
12110;SDS011;6119;52.372;8.990;2024-01-06T08:59:51;7.67;;;5.60;;
12110;SDS011;6119;52.372;8.990;2024-01-06T09:02:38;9.43;;;6.00;;
12110;SDS011;6119;52.372;8.990;2024-01-06T09:05:26;9.07;;;6.20;;
12110;SDS011;6119;52.372;8.990;2024-01-06T09:08:13;8.33;;;5.80;;
12110;SDS011;6119;52.372;8.990;2024-01-06T09:10:59;13.07;;;8.23;;
12110;SDS011;6119;52.372;8.990;2024-01-06T09:13:46;12.87;;;8.17;;
12110;SDS011;6119;52.372;8.990;2024-01-06T09:16:33;15.47;;;8.37;;
12110;SDS011;6119;52.372;8.990;2024-01-06T09:19:19;13.40;;;7.93;;
12110;SDS011;6119;52.372;8.990;2024-01-06T09:22:08;13.67;;;8.67;;
12110;SDS011;6119;52.372;8.990;2024-01-06T09:24:54;16.10;;;8.07;;
12110;SDS011;6119;52.372;8.990;2024-01-06T09:27:41;12.80;;;8.23;;
12110;SDS011;6119;52.372;8.990;2024-01-06T09:30:27;12.43;;;7.17;;
12110;SDS011;6119;52.372;8.990;2024-01-06T09:33:14;11.47;;;7.90;;
12110;SDS011;6119;52.372;8.990;2024-01-06T09:36:03;12.83;;;7.93;;
12110;SDS011;6119;52.372;8.990;2024-01-06T09:38:51;12.83;;;7.67;;
12110;SDS011;6119;52.372;8.990;2024-01-06T09:41:38;12.83;;;7.07;;
12110;SDS011;6119;52.372;8.990;2024-01-06T09:44:25;14.47;;;7.57;;
12110;SDS011;6119;52.372;8.990;2024-01-06T09:47:12;11.83;;;6.83;;
12110;SDS011;6119;52.372;8.990;2024-01-06T09:50:00;11.53;;;7.00;;
12110;SDS011;6119;52.372;8.990;2024-01-06T09:52:49;9.03;;;6.03;;
12110;SDS011;6119;52.372;8.990;2024-01-06T09:55:42;10.27;;;6.13;;
12110;SDS011;6119;52.372;8.990;2024-01-06T09:58:29;9.43;;;6.23;;
12110;SDS011;6119;52.372;8.990;2024-01-06T10:01:19;10.67;;;6.00;;
12110;SDS011;6119;52.372;8.990;2024-01-06T10:04:06;9.40;;;5.93;;
12110;SDS011;6119;52.372;8.990;2024-01-06T10:06:53;9.67;;;6.33;;
12110;SDS011;6119;52.372;8.990;2024-01-06T10:09:40;9.60;;;6.10;;
12110;SDS011;6119;52.372;8.990;2024-01-06T10:12:29;10.33;;;6.20;;
12110;SDS011;6119;52.372;8.990;2024-01-06T10:15:17;9.33;;;5.80;;
12110;SDS011;6119;52.372;8.990;2024-01-06T10:18:06;9.57;;;5.83;;
12110;SDS011;6119;52.372;8.990;2024-01-06T10:20:53;7.37;;;5.13;;
12110;SDS011;6119;52.372;8.990;2024-01-06T10:23:40;7.73;;;5.70;;
12110;SDS011;6119;52.372;8.990;2024-01-06T10:26:27;8.70;;;5.57;;
12110;SDS011;6119;52.372;8.990;2024-01-06T10:29:17;8.43;;;5.73;;
12110;SDS011;6119;52.372;8.990;2024-01-06T10:32:04;8.33;;;5.47;;
12110;SDS011;6119;52.372;8.990;2024-01-06T10:34:51;8.13;;;5.57;;
12110;SDS011;6119;52.372;8.990;2024-01-06T10:37:38;10.73;;;5.50;;
12110;SDS011;6119;52.372;8.990;2024-01-06T10:40:28;10.70;;;6.40;;
12110;SDS011;6119;52.372;8.990;2024-01-06T10:43:14;8.60;;;5.47;;
12110;SDS011;6119;52.372;8.990;2024-01-06T10:46:03;10.20;;;5.47;;
12110;SDS011;6119;52.372;8.990;2024-01-06T10:48:50;7.93;;;4.93;;
12110;SDS011;6119;52.372;8.990;2024-01-06T10:51:38;7.17;;;5.03;;
12110;SDS011;6119;52.372;8.990;2024-01-06T10:54:25;7.43;;;4.70;;
12110;SDS011;6119;52.372;8.990;2024-01-06T10:57:14;7.53;;;4.83;;
12110;SDS011;6119;52.372;8.990;2024-01-06T11:00:02;10.23;;;4.40;;
12110;SDS011;6119;52.372;8.990;2024-01-06T11:02:51;7.20;;;4.30;;
12110;SDS011;6119;52.372;8.990;2024-01-06T11:05:41;7.87;;;4.70;;
12110;SDS011;6119;52.372;8.990;2024-01-06T11:08:28;15.50;;;5.23;;
12110;SDS011;6119;52.372;8.990;2024-01-06T11:11:16;14.10;;;4.70;;
12110;SDS011;6119;52.372;8.990;2024-01-06T11:17:13;6.07;;;4.80;;
12110;SDS011;6119;52.372;8.990;2024-01-06T11:20:36;9.17;;;4.40;;
12110;SDS011;6119;52.372;8.990;2024-01-06T11:23:23;6.43;;;4.23;;
12110;SDS011;6119;52.372;8.990;2024-01-06T11:26:09;6.63;;;4.60;;
12110;SDS011;6119;52.372;8.990;2024-01-06T11:28:56;6.97;;;4.73;;
12110;SDS011;6119;52.372;8.990;2024-01-06T11:31:43;7.87;;;4.33;;
12110;SDS011;6119;52.372;8.990;2024-01-06T11:34:50;7.53;;;4.97;;
12110;SDS011;6119;52.372;8.990;2024-01-06T11:37:51;5.53;;;3.83;;
12110;SDS011;6119;52.372;8.990;2024-01-06T11:40:43;5.10;;;3.90;;
12110;SDS011;6119;52.372;8.990;2024-01-06T11:43:29;7.23;;;3.90;;
12110;SDS011;6119;52.372;8.990;2024-01-06T11:46:20;5.30;;;3.60;;
12110;SDS011;6119;52.372;8.990;2024-01-06T11:49:06;5.60;;;3.80;;
12110;SDS011;6119;52.372;8.990;2024-01-06T11:51:56;5.83;;;4.10;;
12110;SDS011;6119;52.372;8.990;2024-01-06T11:54:44;6.27;;;4.60;;
12110;SDS011;6119;52.372;8.990;2024-01-06T11:57:31;4.20;;;3.63;;
12110;SDS011;6119;52.372;8.990;2024-01-06T12:00:18;5.83;;;3.93;;
12110;SDS011;6119;52.372;8.990;2024-01-06T12:03:05;4.63;;;3.70;;
12110;SDS011;6119;52.372;8.990;2024-01-06T12:05:58;5.43;;;3.60;;
12110;SDS011;6119;52.372;8.990;2024-01-06T12:08:46;6.60;;;4.43;;
12110;SDS011;6119;52.372;8.990;2024-01-06T12:11:34;6.90;;;4.20;;
12110;SDS011;6119;52.372;8.990;2024-01-06T12:14:21;7.07;;;4.23;;
12110;SDS011;6119;52.372;8.990;2024-01-06T12:17:09;6.43;;;4.03;;
12110;SDS011;6119;52.372;8.990;2024-01-06T12:19:57;4.80;;;3.93;;
12110;SDS011;6119;52.372;8.990;2024-01-06T12:22:45;10.77;;;5.87;;
12110;SDS011;6119;52.372;8.990;2024-01-06T12:25:31;6.10;;;4.47;;
12110;SDS011;6119;52.372;8.990;2024-01-06T12:28:26;7.53;;;5.77;;
12110;SDS011;6119;52.372;8.990;2024-01-06T12:31:13;6.43;;;4.63;;
12110;SDS011;6119;52.372;8.990;2024-01-06T12:34:00;14.30;;;9.70;;
12110;SDS011;6119;52.372;8.990;2024-01-06T12:36:50;8.20;;;5.90;;
12110;SDS011;6119;52.372;8.990;2024-01-06T12:39:40;8.03;;;5.00;;
12110;SDS011;6119;52.372;8.990;2024-01-06T12:42:28;7.43;;;5.60;;
12110;SDS011;6119;52.372;8.990;2024-01-06T12:45:15;8.70;;;6.27;;
12110;SDS011;6119;52.372;8.990;2024-01-06T12:48:02;10.30;;;6.80;;
12110;SDS011;6119;52.372;8.990;2024-01-06T12:50:49;37.27;;;22.97;;
12110;SDS011;6119;52.372;8.990;2024-01-06T12:53:36;28.27;;;17.57;;
12110;SDS011;6119;52.372;8.990;2024-01-06T12:56:23;52.37;;;39.43;;
12110;SDS011;6119;52.372;8.990;2024-01-06T12:59:09;8.43;;;7.40;;
12110;SDS011;6119;52.372;8.990;2024-01-06T13:01:57;8.47;;;5.60;;
12110;SDS011;6119;52.372;8.990;2024-01-06T13:04:44;7.40;;;5.20;;
12110;SDS011;6119;52.372;8.990;2024-01-06T13:07:31;9.70;;;5.50;;
12110;SDS011;6119;52.372;8.990;2024-01-06T13:10:19;8.60;;;5.03;;
12110;SDS011;6119;52.372;8.990;2024-01-06T13:13:05;6.37;;;4.60;;
12110;SDS011;6119;52.372;8.990;2024-01-06T13:15:52;6.70;;;5.10;;
12110;SDS011;6119;52.372;8.990;2024-01-06T13:18:41;6.43;;;4.93;;
12110;SDS011;6119;52.372;8.990;2024-01-06T13:21:28;6.60;;;4.90;;
12110;SDS011;6119;52.372;8.990;2024-01-06T13:24:14;5.33;;;4.27;;
12110;SDS011;6119;52.372;8.990;2024-01-06T13:27:02;7.17;;;4.77;;
12110;SDS011;6119;52.372;8.990;2024-01-06T13:29:49;8.67;;;4.73;;
12110;SDS011;6119;52.372;8.990;2024-01-06T13:32:36;7.73;;;4.70;;
12110;SDS011;6119;52.372;8.990;2024-01-06T13:35:24;6.90;;;4.43;;
12110;SDS011;6119;52.372;8.990;2024-01-06T13:38:11;7.83;;;4.60;;
12110;SDS011;6119;52.372;8.990;2024-01-06T13:40:58;5.87;;;4.33;;
12110;SDS011;6119;52.372;8.990;2024-01-06T13:43:44;6.33;;;5.07;;
12110;SDS011;6119;52.372;8.990;2024-01-06T13:46:31;7.77;;;5.50;;
12110;SDS011;6119;52.372;8.990;2024-01-06T13:49:17;6.97;;;5.47;;
12110;SDS011;6119;52.372;8.990;2024-01-06T13:52:06;7.43;;;5.13;;
12110;SDS011;6119;52.372;8.990;2024-01-06T13:54:53;9.10;;;5.80;;
12110;SDS011;6119;52.372;8.990;2024-01-06T13:57:40;8.03;;;5.50;;
12110;SDS011;6119;52.372;8.990;2024-01-06T14:00:28;7.27;;;5.03;;
12110;SDS011;6119;52.372;8.990;2024-01-06T14:03:15;7.33;;;5.43;;
12110;SDS011;6119;52.372;8.990;2024-01-06T14:06:02;7.87;;;5.53;;
12110;SDS011;6119;52.372;8.990;2024-01-06T14:08:52;8.53;;;5.03;;
12110;SDS011;6119;52.372;8.990;2024-01-06T14:11:39;7.43;;;5.43;;
12110;SDS011;6119;52.372;8.990;2024-01-06T14:14:25;7.30;;;5.53;;
12110;SDS011;6119;52.372;8.990;2024-01-06T14:17:12;8.37;;;5.57;;
12110;SDS011;6119;52.372;8.990;2024-01-06T14:19:59;7.83;;;5.43;;
12110;SDS011;6119;52.372;8.990;2024-01-06T14:22:47;8.87;;;5.77;;
12110;SDS011;6119;52.372;8.990;2024-01-06T14:25:36;6.77;;;5.07;;
12110;SDS011;6119;52.372;8.990;2024-01-06T14:28:22;9.80;;;5.53;;
12110;SDS011;6119;52.372;8.990;2024-01-06T14:31:09;9.60;;;5.60;;
12110;SDS011;6119;52.372;8.990;2024-01-06T14:33:56;8.53;;;5.40;;
12110;SDS011;6119;52.372;8.990;2024-01-06T14:36:45;7.73;;;5.30;;
12110;SDS011;6119;52.372;8.990;2024-01-06T14:39:33;9.87;;;6.37;;
12110;SDS011;6119;52.372;8.990;2024-01-06T14:42:23;9.27;;;5.50;;
12110;SDS011;6119;52.372;8.990;2024-01-06T14:45:10;8.20;;;5.53;;
12110;SDS011;6119;52.372;8.990;2024-01-06T14:47:57;11.60;;;6.37;;
12110;SDS011;6119;52.372;8.990;2024-01-06T14:50:44;10.53;;;6.10;;
12110;SDS011;6119;52.372;8.990;2024-01-06T14:53:30;8.33;;;5.13;;
12110;SDS011;6119;52.372;8.990;2024-01-06T14:56:19;7.90;;;5.60;;
12110;SDS011;6119;52.372;8.990;2024-01-06T14:59:07;7.10;;;5.20;;
12110;SDS011;6119;52.372;8.990;2024-01-06T15:01:54;9.90;;;5.93;;
12110;SDS011;6119;52.372;8.990;2024-01-06T15:04:40;10.30;;;6.30;;
12110;SDS011;6119;52.372;8.990;2024-01-06T15:07:27;10.67;;;5.90;;
12110;SDS011;6119;52.372;8.990;2024-01-06T15:10:16;8.93;;;5.63;;
12110;SDS011;6119;52.372;8.990;2024-01-06T15:13:04;10.90;;;6.53;;
12110;SDS011;6119;52.372;8.990;2024-01-06T15:15:52;9.40;;;7.00;;
12110;SDS011;6119;52.372;8.990;2024-01-06T15:18:40;8.93;;;5.47;;
12110;SDS011;6119;52.372;8.990;2024-01-06T15:21:28;10.77;;;6.30;;
12110;SDS011;6119;52.372;8.990;2024-01-06T15:24:18;8.90;;;5.37;;
12110;SDS011;6119;52.372;8.990;2024-01-06T15:27:05;10.83;;;6.23;;
12110;SDS011;6119;52.372;8.990;2024-01-06T15:29:51;10.00;;;6.03;;
12110;SDS011;6119;52.372;8.990;2024-01-06T15:32:41;10.03;;;5.80;;
12110;SDS011;6119;52.372;8.990;2024-01-06T15:35:28;9.93;;;6.20;;
12110;SDS011;6119;52.372;8.990;2024-01-06T15:38:14;10.37;;;6.93;;
12110;SDS011;6119;52.372;8.990;2024-01-06T15:41:01;8.77;;;6.00;;
12110;SDS011;6119;52.372;8.990;2024-01-06T15:43:50;10.97;;;6.50;;
12110;SDS011;6119;52.372;8.990;2024-01-06T15:46:36;10.53;;;6.10;;
12110;SDS011;6119;52.372;8.990;2024-01-06T15:49:24;10.03;;;6.90;;
12110;SDS011;6119;52.372;8.990;2024-01-06T15:52:12;9.43;;;6.23;;
12110;SDS011;6119;52.372;8.990;2024-01-06T15:54:59;14.40;;;7.57;;
12110;SDS011;6119;52.372;8.990;2024-01-06T15:57:45;9.83;;;6.80;;
12110;SDS011;6119;52.372;8.990;2024-01-06T16:00:32;11.63;;;7.23;;
12110;SDS011;6119;52.372;8.990;2024-01-06T16:03:21;10.77;;;6.80;;
12110;SDS011;6119;52.372;8.990;2024-01-06T16:06:09;11.57;;;7.27;;
12110;SDS011;6119;52.372;8.990;2024-01-06T16:08:56;10.70;;;6.70;;
12110;SDS011;6119;52.372;8.990;2024-01-06T16:11:42;11.40;;;7.17;;
12110;SDS011;6119;52.372;8.990;2024-01-06T16:14:29;10.70;;;6.67;;
12110;SDS011;6119;52.372;8.990;2024-01-06T16:17:19;10.30;;;6.83;;
12110;SDS011;6119;52.372;8.990;2024-01-06T16:20:06;8.57;;;5.97;;
12110;SDS011;6119;52.372;8.990;2024-01-06T16:22:56;9.80;;;6.40;;
12110;SDS011;6119;52.372;8.990;2024-01-06T16:25:43;9.77;;;7.07;;
12110;SDS011;6119;52.372;8.990;2024-01-06T16:28:31;8.53;;;6.43;;
12110;SDS011;6119;52.372;8.990;2024-01-06T16:31:17;9.70;;;6.30;;
12110;SDS011;6119;52.372;8.990;2024-01-06T16:34:10;9.60;;;6.03;;
12110;SDS011;6119;52.372;8.990;2024-01-06T16:36:57;9.80;;;6.97;;
12110;SDS011;6119;52.372;8.990;2024-01-06T16:39:45;11.37;;;7.10;;
12110;SDS011;6119;52.372;8.990;2024-01-06T16:42:31;9.97;;;6.83;;
12110;SDS011;6119;52.372;8.990;2024-01-06T16:45:18;8.77;;;6.63;;
12110;SDS011;6119;52.372;8.990;2024-01-06T16:48:05;8.23;;;6.33;;
12110;SDS011;6119;52.372;8.990;2024-01-06T16:50:53;8.90;;;6.07;;
12110;SDS011;6119;52.372;8.990;2024-01-06T16:53:39;6.97;;;5.50;;
12110;SDS011;6119;52.372;8.990;2024-01-06T16:56:28;7.83;;;5.70;;
12110;SDS011;6119;52.372;8.990;2024-01-06T16:59:15;11.10;;;5.97;;
12110;SDS011;6119;52.372;8.990;2024-01-06T17:02:02;8.97;;;6.40;;
12110;SDS011;6119;52.372;8.990;2024-01-06T17:04:49;9.00;;;6.23;;